sensor_id;sensor_type;location;lat;lon;timestamp;P1;durP1;ratioP1;P2;durP2;ratioP2
24799;SDS011;12897;50.812;4.430;2023-08-07T00:04:08;17.52;;;3.98;;
24799;SDS011;12897;50.812;4.430;2023-08-07T00:06:36;11.25;;;3.58;;
24799;SDS011;12897;50.812;4.430;2023-08-07T00:11:40;15.68;;;3.85;;
24799;SDS011;12897;50.812;4.430;2023-08-07T00:14:08;16.17;;;3.20;;
24799;SDS011;12897;50.812;4.430;2023-08-07T00:16:35;17.92;;;4.03;;
24799;SDS011;12897;50.812;4.430;2023-08-07T00:19:03;9.55;;;3.75;;
24799;SDS011;12897;50.812;4.430;2023-08-07T00:21:31;18.70;;;3.50;;
24799;SDS011;12897;50.812;4.430;2023-08-07T00:24:00;17.10;;;3.95;;
24799;SDS011;12897;50.812;4.430;2023-08-07T00:26:28;12.40;;;3.33;;
24799;SDS011;12897;50.812;4.430;2023-08-07T00:28:57;10.20;;;3.30;;
24799;SDS011;12897;50.812;4.430;2023-08-07T00:31:26;10.33;;;3.30;;
24799;SDS011;12897;50.812;4.430;2023-08-07T00:33:57;8.00;;;3.20;;
24799;SDS011;12897;50.812;4.430;2023-08-07T00:36:25;15.90;;;3.60;;
24799;SDS011;12897;50.812;4.430;2023-08-07T00:38:54;10.90;;;3.60;;
24799;SDS011;12897;50.812;4.430;2023-08-07T00:41:22;14.55;;;3.42;;
24799;SDS011;12897;50.812;4.430;2023-08-07T00:43:49;15.80;;;3.30;;
24799;SDS011;12897;50.812;4.430;2023-08-07T00:46:18;10.60;;;3.27;;
24799;SDS011;12897;50.812;4.430;2023-08-07T00:48:46;13.53;;;3.55;;
24799;SDS011;12897;50.812;4.430;2023-08-07T00:51:16;14.05;;;3.37;;
24799;SDS011;12897;50.812;4.430;2023-08-07T00:53:52;12.53;;;3.15;;
24799;SDS011;12897;50.812;4.430;2023-08-07T00:59:04;14.47;;;3.77;;
24799;SDS011;12897;50.812;4.430;2023-08-07T01:06:51;15.65;;;3.65;;
24799;SDS011;12897;50.812;4.430;2023-08-07T01:09:19;13.10;;;3.87;;
24799;SDS011;12897;50.812;4.430;2023-08-07T01:11:52;17.48;;;3.47;;
24799;SDS011;12897;50.812;4.430;2023-08-07T01:14:27;12.10;;;3.52;;
24799;SDS011;12897;50.812;4.430;2023-08-07T01:17:09;12.53;;;3.25;;
24799;SDS011;12897;50.812;4.430;2023-08-07T01:19:38;18.73;;;3.45;;
24799;SDS011;12897;50.812;4.430;2023-08-07T01:22:08;8.90;;;2.92;;
24799;SDS011;12897;50.812;4.430;2023-08-07T01:24:37;10.53;;;3.10;;
24799;SDS011;12897;50.812;4.430;2023-08-07T01:29:57;17.20;;;3.37;;
24799;SDS011;12897;50.812;4.430;2023-08-07T01:33:04;15.15;;;3.52;;
24799;SDS011;12897;50.812;4.430;2023-08-07T01:35:45;9.08;;;2.75;;
24799;SDS011;12897;50.812;4.430;2023-08-07T01:38:15;15.55;;;3.27;;
24799;SDS011;12897;50.812;4.430;2023-08-07T01:40:49;10.53;;;3.10;;
24799;SDS011;12897;50.812;4.430;2023-08-07T01:43:30;15.48;;;3.00;;
24799;SDS011;12897;50.812;4.430;2023-08-07T01:46:03;13.60;;;3.17;;
24799;SDS011;12897;50.812;4.430;2023-08-07T01:48:38;12.35;;;3.42;;
24799;SDS011;12897;50.812;4.430;2023-08-07T01:51:13;9.73;;;2.75;;
24799;SDS011;12897;50.812;4.430;2023-08-07T01:53:41;10.15;;;2.83;;
24799;SDS011;12897;50.812;4.430;2023-08-07T01:56:09;9.75;;;2.83;;
24799;SDS011;12897;50.812;4.430;2023-08-07T01:58:36;9.70;;;2.83;;
24799;SDS011;12897;50.812;4.430;2023-08-07T02:01:04;9.38;;;2.90;;
24799;SDS011;12897;50.812;4.430;2023-08-07T02:03:33;16.70;;;3.27;;
24799;SDS011;12897;50.812;4.430;2023-08-07T02:06:00;15.18;;;3.12;;
24799;SDS011;12897;50.812;4.430;2023-08-07T02:08:28;10.55;;;3.12;;
24799;SDS011;12897;50.812;4.430;2023-08-07T02:10:56;6.50;;;2.92;;
24799;SDS011;12897;50.812;4.430;2023-08-07T02:13:23;12.47;;;2.77;;
24799;SDS011;12897;50.812;4.430;2023-08-07T02:15:51;7.60;;;3.25;;
24799;SDS011;12897;50.812;4.430;2023-08-07T02:18:18;12.53;;;3.65;;
24799;SDS011;12897;50.812;4.430;2023-08-07T02:20:46;17.92;;;3.17;;
24799;SDS011;12897;50.812;4.430;2023-08-07T02:23:14;12.98;;;2.85;;
24799;SDS011;12897;50.812;4.430;2023-08-07T02:25:41;9.00;;;3.22;;
24799;SDS011;12897;50.812;4.430;2023-08-07T02:28:10;8.00;;;2.90;;
24799;SDS011;12897;50.812;4.430;2023-08-07T02:30:39;17.12;;;3.17;;
24799;SDS011;12897;50.812;4.430;2023-08-07T02:33:06;10.78;;;3.20;;
24799;SDS011;12897;50.812;4.430;2023-08-07T02:35:36;11.70;;;3.70;;
24799;SDS011;12897;50.812;4.430;2023-08-07T02:38:13;9.68;;;2.80;;
24799;SDS011;12897;50.812;4.430;2023-08-07T02:40:51;11.38;;;2.83;;
24799;SDS011;12897;50.812;4.430;2023-08-07T02:46:04;14.03;;;2.95;;
24799;SDS011;12897;50.812;4.430;2023-08-07T02:51:15;10.55;;;3.10;;
24799;SDS011;12897;50.812;4.430;2023-08-07T02:53:42;11.03;;;3.00;;
24799;SDS011;12897;50.812;4.430;2023-08-07T02:56:10;13.75;;;3.25;;
24799;SDS011;12897;50.812;4.430;2023-08-07T02:58:40;6.87;;;2.60;;
24799;SDS011;12897;50.812;4.430;2023-08-07T03:01:08;9.40;;;2.60;;
24799;SDS011;12897;50.812;4.430;2023-08-07T03:06:15;7.65;;;2.70;;
24799;SDS011;12897;50.812;4.430;2023-08-07T03:08:42;14.98;;;3.12;;
24799;SDS011;12897;50.812;4.430;2023-08-07T03:11:11;11.55;;;3.30;;
24799;SDS011;12897;50.812;4.430;2023-08-07T03:13:39;12.60;;;2.80;;
24799;SDS011;12897;50.812;4.430;2023-08-07T03:16:07;9.65;;;2.50;;
24799;SDS011;12897;50.812;4.430;2023-08-07T03:18:38;13.43;;;2.72;;
24799;SDS011;12897;50.812;4.430;2023-08-07T03:21:06;9.65;;;2.62;;
24799;SDS011;12897;50.812;4.430;2023-08-07T03:23:35;10.20;;;2.95;;
24799;SDS011;12897;50.812;4.430;2023-08-07T03:26:10;6.53;;;2.40;;
24799;SDS011;12897;50.812;4.430;2023-08-07T03:28:35;5.05;;;2.25;;
24799;SDS011;12897;50.812;4.430;2023-08-07T03:31:03;11.48;;;2.92;;
24799;SDS011;12897;50.812;4.430;2023-08-07T03:33:30;7.75;;;2.58;;
24799;SDS011;12897;50.812;4.430;2023-08-07T03:36:04;13.55;;;3.37;;
24799;SDS011;12897;50.812;4.430;2023-08-07T03:38:33;8.98;;;3.10;;
24799;SDS011;12897;50.812;4.430;2023-08-07T03:41:00;8.88;;;3.08;;
24799;SDS011;12897;50.812;4.430;2023-08-07T03:43:29;9.63;;;2.87;;
24799;SDS011;12897;50.812;4.430;2023-08-07T03:45:59;11.05;;;3.20;;
24799;SDS011;12897;50.812;4.430;2023-08-07T03:48:38;9.80;;;2.90;;
24799;SDS011;12897;50.812;4.430;2023-08-07T03:51:06;6.12;;;2.37;;
24799;SDS011;12897;50.812;4.430;2023-08-07T03:53:48;9.18;;;2.45;;
24799;SDS011;12897;50.812;4.430;2023-08-07T03:58:59;9.78;;;3.10;;
24799;SDS011;12897;50.812;4.430;2023-08-07T04:01:28;6.92;;;2.47;;
24799;SDS011;12897;50.812;4.430;2023-08-07T04:03:56;13.13;;;3.37;;
24799;SDS011;12897;50.812;4.430;2023-08-07T04:06:26;7.72;;;2.62;;
24799;SDS011;12897;50.812;4.430;2023-08-07T04:08:59;11.18;;;2.85;;
24799;SDS011;12897;50.812;4.430;2023-08-07T04:11:29;10.05;;;2.83;;
24799;SDS011;12897;50.812;4.430;2023-08-07T04:13:56;6.33;;;2.77;;
24799;SDS011;12897;50.812;4.430;2023-08-07T04:16:24;11.78;;;2.65;;
24799;SDS011;12897;50.812;4.430;2023-08-07T04:18:51;17.73;;;3.52;;
24799;SDS011;12897;50.812;4.430;2023-08-07T04:21:19;12.98;;;3.62;;
24799;SDS011;12897;50.812;4.430;2023-08-07T04:23:47;13.53;;;2.80;;
24799;SDS011;12897;50.812;4.430;2023-08-07T04:26:14;14.43;;;3.55;;
24799;SDS011;12897;50.812;4.430;2023-08-07T04:28:42;9.05;;;2.90;;
24799;SDS011;12897;50.812;4.430;2023-08-07T04:31:09;8.55;;;2.98;;
24799;SDS011;12897;50.812;4.430;2023-08-07T04:33:37;7.47;;;3.27;;
24799;SDS011;12897;50.812;4.430;2023-08-07T04:36:05;16.60;;;3.08;;
24799;SDS011;12897;50.812;4.430;2023-08-07T04:38:32;8.65;;;3.42;;
24799;SDS011;12897;50.812;4.430;2023-08-07T04:41:03;12.87;;;3.30;;
24799;SDS011;12897;50.812;4.430;2023-08-07T04:43:32;20.00;;;3.77;;
24799;SDS011;12897;50.812;4.430;2023-08-07T04:46:00;16.35;;;3.85;;
24799;SDS011;12897;50.812;4.430;2023-08-07T04:48:34;13.95;;;3.65;;
24799;SDS011;12897;50.812;4.430;2023-08-07T04:51:10;6.90;;;2.87;;
24799;SDS011;12897;50.812;4.430;2023-08-07T04:53:41;14.60;;;3.40;;
24799;SDS011;12897;50.812;4.430;2023-08-07T04:56:09;8.48;;;2.95;;
24799;SDS011;12897;50.812;4.430;2023-08-07T04:58:39;11.73;;;3.33;;
24799;SDS011;12897;50.812;4.430;2023-08-07T05:01:07;10.00;;;3.33;;
24799;SDS011;12897;50.812;4.430;2023-08-07T05:03:35;12.63;;;3.30;;
24799;SDS011;12897;50.812;4.430;2023-08-07T05:06:04;12.45;;;3.37;;
24799;SDS011;12897;50.812;4.430;2023-08-07T05:11:05;10.15;;;3.47;;
24799;SDS011;12897;50.812;4.430;2023-08-07T05:13:34;10.28;;;3.52;;
24799;SDS011;12897;50.812;4.430;2023-08-07T05:16:03;12.82;;;3.22;;
24799;SDS011;12897;50.812;4.430;2023-08-07T05:18:31;11.85;;;3.12;;
24799;SDS011;12897;50.812;4.430;2023-08-07T05:23:31;5.47;;;2.83;;
24799;SDS011;12897;50.812;4.430;2023-08-07T05:25:59;8.28;;;3.50;;
24799;SDS011;12897;50.812;4.430;2023-08-07T05:28:28;15.95;;;3.85;;
24799;SDS011;12897;50.812;4.430;2023-08-07T05:30:55;9.55;;;3.10;;
24799;SDS011;12897;50.812;4.430;2023-08-07T05:33:24;12.00;;;3.35;;
24799;SDS011;12897;50.812;4.430;2023-08-07T05:35:52;10.13;;;3.33;;
24799;SDS011;12897;50.812;4.430;2023-08-07T05:38:24;11.05;;;3.35;;
24799;SDS011;12897;50.812;4.430;2023-08-07T05:40:52;11.43;;;4.03;;
24799;SDS011;12897;50.812;4.430;2023-08-07T05:43:19;9.63;;;3.33;;
24799;SDS011;12897;50.812;4.430;2023-08-07T05:45:50;11.95;;;3.27;;
24799;SDS011;12897;50.812;4.430;2023-08-07T05:48:19;6.22;;;2.75;;
24799;SDS011;12897;50.812;4.430;2023-08-07T05:50:47;6.47;;;2.70;;
24799;SDS011;12897;50.812;4.430;2023-08-07T05:55:47;13.55;;;3.33;;
24799;SDS011;12897;50.812;4.430;2023-08-07T05:58:16;20.32;;;3.10;;
24799;SDS011;12897;50.812;4.430;2023-08-07T06:00:44;12.88;;;3.30;;
24799;SDS011;12897;50.812;4.430;2023-08-07T06:03:12;8.65;;;2.60;;
24799;SDS011;12897;50.812;4.430;2023-08-07T06:05:39;8.70;;;3.08;;
24799;SDS011;12897;50.812;4.430;2023-08-07T06:08:10;16.30;;;3.35;;
24799;SDS011;12897;50.812;4.430;2023-08-07T06:10:37;11.93;;;3.17;;
24799;SDS011;12897;50.812;4.430;2023-08-07T06:13:05;9.73;;;3.37;;
24799;SDS011;12897;50.812;4.430;2023-08-07T06:15:34;12.82;;;2.95;;
24799;SDS011;12897;50.812;4.430;2023-08-07T06:18:01;12.85;;;3.15;;
24799;SDS011;12897;50.812;4.430;2023-08-07T06:20:30;9.53;;;2.90;;
24799;SDS011;12897;50.812;4.430;2023-08-07T06:22:57;15.00;;;3.40;;
24799;SDS011;12897;50.812;4.430;2023-08-07T06:25:25;12.53;;;3.22;;
24799;SDS011;12897;50.812;4.430;2023-08-07T06:27:53;11.38;;;3.00;;
24799;SDS011;12897;50.812;4.430;2023-08-07T06:30:21;12.18;;;3.55;;
24799;SDS011;12897;50.812;4.430;2023-08-07T06:32:50;10.50;;;2.67;;
24799;SDS011;12897;50.812;4.430;2023-08-07T06:35:19;13.30;;;3.10;;
24799;SDS011;12897;50.812;4.430;2023-08-07T06:37:51;13.13;;;3.25;;
24799;SDS011;12897;50.812;4.430;2023-08-07T06:40:20;16.65;;;3.58;;
24799;SDS011;12897;50.812;4.430;2023-08-07T06:42:47;9.95;;;2.90;;
24799;SDS011;12897;50.812;4.430;2023-08-07T06:45:17;7.10;;;3.20;;
24799;SDS011;12897;50.812;4.430;2023-08-07T06:47:44;10.45;;;3.70;;
24799;SDS011;12897;50.812;4.430;2023-08-07T06:50:13;10.70;;;2.70;;
24799;SDS011;12897;50.812;4.430;2023-08-07T06:52:41;10.70;;;3.20;;
24799;SDS011;12897;50.812;4.430;2023-08-07T06:55:09;11.38;;;3.33;;
24799;SDS011;12897;50.812;4.430;2023-08-07T06:57:37;10.03;;;3.27;;
24799;SDS011;12897;50.812;4.430;2023-08-07T07:00:05;10.03;;;3.20;;
24799;SDS011;12897;50.812;4.430;2023-08-07T07:02:40;14.03;;;3.50;;
24799;SDS011;12897;50.812;4.430;2023-08-07T07:05:07;11.85;;;3.25;;
24799;SDS011;12897;50.812;4.430;2023-08-07T07:07:36;17.37;;;3.50;;
24799;SDS011;12897;50.812;4.430;2023-08-07T07:10:05;20.08;;;4.28;;
24799;SDS011;12897;50.812;4.430;2023-08-07T07:12:32;13.93;;;2.97;;
24799;SDS011;12897;50.812;4.430;2023-08-07T07:15:00;11.22;;;3.55;;
24799;SDS011;12897;50.812;4.430;2023-08-07T07:17:28;10.85;;;3.37;;
24799;SDS011;12897;50.812;4.430;2023-08-07T07:19:55;11.97;;;3.17;;
24799;SDS011;12897;50.812;4.430;2023-08-07T07:22:23;11.53;;;3.12;;
24799;SDS011;12897;50.812;4.430;2023-08-07T07:24:50;8.65;;;3.15;;
24799;SDS011;12897;50.812;4.430;2023-08-07T07:27:18;14.95;;;3.42;;
24799;SDS011;12897;50.812;4.430;2023-08-07T07:29:52;10.30;;;3.30;;
24799;SDS011;12897;50.812;4.430;2023-08-07T07:32:16;13.63;;;2.87;;
24799;SDS011;12897;50.812;4.430;2023-08-07T07:34:46;8.08;;;3.40;;
24799;SDS011;12897;50.812;4.430;2023-08-07T07:37:13;14.00;;;3.37;;
24799;SDS011;12897;50.812;4.430;2023-08-07T07:39:42;10.13;;;2.72;;
24799;SDS011;12897;50.812;4.430;2023-08-07T07:42:10;13.95;;;3.75;;
24799;SDS011;12897;50.812;4.430;2023-08-07T07:44:38;13.90;;;3.17;;
24799;SDS011;12897;50.812;4.430;2023-08-07T07:47:07;7.67;;;2.60;;
24799;SDS011;12897;50.812;4.430;2023-08-07T07:49:35;14.43;;;3.50;;
24799;SDS011;12897;50.812;4.430;2023-08-07T07:52:02;11.68;;;3.90;;
24799;SDS011;12897;50.812;4.430;2023-08-07T07:54:31;14.20;;;3.20;;
24799;SDS011;12897;50.812;4.430;2023-08-07T07:56:59;7.92;;;3.00;;
24799;SDS011;12897;50.812;4.430;2023-08-07T07:59:26;12.07;;;3.47;;
24799;SDS011;12897;50.812;4.430;2023-08-07T08:01:54;8.30;;;2.83;;
24799;SDS011;12897;50.812;4.430;2023-08-07T08:04:21;10.55;;;3.40;;
24799;SDS011;12897;50.812;4.430;2023-08-07T08:06:49;11.00;;;2.80;;
24799;SDS011;12897;50.812;4.430;2023-08-07T08:09:17;8.23;;;2.47;;
24799;SDS011;12897;50.812;4.430;2023-08-07T08:11:50;7.75;;;2.70;;
24799;SDS011;12897;50.812;4.430;2023-08-07T08:14:17;10.55;;;2.90;;
24799;SDS011;12897;50.812;4.430;2023-08-07T08:16:45;9.60;;;2.55;;
24799;SDS011;12897;50.812;4.430;2023-08-07T08:19:12;10.48;;;3.00;;
24799;SDS011;12897;50.812;4.430;2023-08-07T08:21:42;10.82;;;2.62;;
24799;SDS011;12897;50.812;4.430;2023-08-07T08:24:09;6.85;;;2.50;;
24799;SDS011;12897;50.812;4.430;2023-08-07T08:26:37;7.83;;;2.25;;
24799;SDS011;12897;50.812;4.430;2023-08-07T08:29:05;9.00;;;2.90;;
24799;SDS011;12897;50.812;4.430;2023-08-07T08:31:34;6.97;;;2.30;;
24799;SDS011;12897;50.812;4.430;2023-08-07T08:34:01;5.83;;;2.45;;
24799;SDS011;12897;50.812;4.430;2023-08-07T08:36:30;8.80;;;2.42;;
24799;SDS011;12897;50.812;4.430;2023-08-07T08:38:58;8.05;;;2.40;;
24799;SDS011;12897;50.812;4.430;2023-08-07T08:41:25;7.35;;;2.27;;
24799;SDS011;12897;50.812;4.430;2023-08-07T08:43:53;6.42;;;1.92;;
24799;SDS011;12897;50.812;4.430;2023-08-07T08:46:22;6.55;;;2.37;;
24799;SDS011;12897;50.812;4.430;2023-08-07T08:48:54;9.25;;;2.35;;
24799;SDS011;12897;50.812;4.430;2023-08-07T08:51:24;11.85;;;2.60;;
24799;SDS011;12897;50.812;4.430;2023-08-07T08:53:56;6.17;;;2.27;;
24799;SDS011;12897;50.812;4.430;2023-08-07T08:56:27;10.08;;;2.92;;
24799;SDS011;12897;50.812;4.430;2023-08-07T08:58:58;5.65;;;2.12;;
24799;SDS011;12897;50.812;4.430;2023-08-07T09:01:28;5.28;;;2.30;;
24799;SDS011;12897;50.812;4.430;2023-08-07T09:03:57;6.45;;;2.42;;
24799;SDS011;12897;50.812;4.430;2023-08-07T09:06:27;5.90;;;2.10;;
24799;SDS011;12897;50.812;4.430;2023-08-07T09:08:56;9.40;;;2.80;;
24799;SDS011;12897;50.812;4.430;2023-08-07T09:13:54;6.78;;;1.95;;
24799;SDS011;12897;50.812;4.430;2023-08-07T09:16:26;5.90;;;2.37;;
24799;SDS011;12897;50.812;4.430;2023-08-07T09:18:54;3.72;;;2.17;;
24799;SDS011;12897;50.812;4.430;2023-08-07T09:21:22;11.43;;;2.95;;
24799;SDS011;12897;50.812;4.430;2023-08-07T09:23:50;6.45;;;2.27;;
24799;SDS011;12897;50.812;4.430;2023-08-07T09:26:21;5.70;;;2.20;;
24799;SDS011;12897;50.812;4.430;2023-08-07T09:28:50;5.30;;;2.20;;
24799;SDS011;12897;50.812;4.430;2023-08-07T09:31:20;8.05;;;2.55;;
24799;SDS011;12897;50.812;4.430;2023-08-07T09:33:51;8.68;;;2.37;;
24799;SDS011;12897;50.812;4.430;2023-08-07T09:36:18;6.08;;;1.92;;
24799;SDS011;12897;50.812;4.430;2023-08-07T09:38:49;5.03;;;2.00;;
24799;SDS011;12897;50.812;4.430;2023-08-07T09:41:19;4.60;;;1.95;;
24799;SDS011;12897;50.812;4.430;2023-08-07T09:43:48;6.90;;;2.15;;
24799;SDS011;12897;50.812;4.430;2023-08-07T09:46:18;5.87;;;2.22;;
24799;SDS011;12897;50.812;4.430;2023-08-07T09:48:47;6.65;;;2.10;;
24799;SDS011;12897;50.812;4.430;2023-08-07T09:51:18;5.80;;;2.33;;
24799;SDS011;12897;50.812;4.430;2023-08-07T09:53:47;2.58;;;1.62;;
24799;SDS011;12897;50.812;4.430;2023-08-07T09:56:15;6.78;;;2.30;;
24799;SDS011;12897;50.812;4.430;2023-08-07T09:58:49;5.55;;;2.00;;
24799;SDS011;12897;50.812;4.430;2023-08-07T10:01:18;5.12;;;1.85;;
24799;SDS011;12897;50.812;4.430;2023-08-07T10:03:48;8.88;;;2.60;;
24799;SDS011;12897;50.812;4.430;2023-08-07T10:06:16;12.28;;;2.47;;
24799;SDS011;12897;50.812;4.430;2023-08-07T10:08:45;7.67;;;2.52;;
24799;SDS011;12897;50.812;4.430;2023-08-07T10:11:13;6.05;;;1.90;;
24799;SDS011;12897;50.812;4.430;2023-08-07T10:13:42;7.72;;;2.33;;
24799;SDS011;12897;50.812;4.430;2023-08-07T10:16:12;5.40;;;2.30;;
24799;SDS011;12897;50.812;4.430;2023-08-07T10:18:43;5.62;;;1.72;;
24799;SDS011;12897;50.812;4.430;2023-08-07T10:21:12;4.20;;;1.60;;
24799;SDS011;12897;50.812;4.430;2023-08-07T10:23:41;5.50;;;2.00;;
24799;SDS011;12897;50.812;4.430;2023-08-07T10:28:40;4.12;;;2.10;;
24799;SDS011;12897;50.812;4.430;2023-08-07T10:31:09;4.60;;;1.75;;
24799;SDS011;12897;50.812;4.430;2023-08-07T10:33:42;5.50;;;1.80;;
24799;SDS011;12897;50.812;4.430;2023-08-07T10:36:12;4.55;;;1.72;;
24799;SDS011;12897;50.812;4.430;2023-08-07T10:38:42;4.47;;;1.80;;
24799;SDS011;12897;50.812;4.430;2023-08-07T10:41:15;8.17;;;2.37;;
24799;SDS011;12897;50.812;4.430;2023-08-07T10:43:43;3.98;;;2.00;;
24799;SDS011;12897;50.812;4.430;2023-08-07T10:46:16;5.37;;;2.00;;
24799;SDS011;12897;50.812;4.430;2023-08-07T10:48:53;4.22;;;2.10;;
24799;SDS011;12897;50.812;4.430;2023-08-07T10:51:27;3.30;;;2.10;;
24799;SDS011;12897;50.812;4.430;2023-08-07T10:53:57;3.60;;;1.70;;
24799;SDS011;12897;50.812;4.430;2023-08-07T10:56:31;6.00;;;2.05;;
24799;SDS011;12897;50.812;4.430;2023-08-07T10:59:10;5.67;;;2.12;;
24799;SDS011;12897;50.812;4.430;2023-08-07T11:04:11;3.62;;;1.62;;
24799;SDS011;12897;50.812;4.430;2023-08-07T11:06:43;3.90;;;1.95;;
24799;SDS011;12897;50.812;4.430;2023-08-07T11:09:12;9.15;;;2.27;;
24799;SDS011;12897;50.812;4.430;2023-08-07T11:11:42;4.80;;;1.98;;
24799;SDS011;12897;50.812;4.430;2023-08-07T11:14:11;5.50;;;1.95;;
24799;SDS011;12897;50.812;4.430;2023-08-07T11:16:44;9.18;;;2.87;;
24799;SDS011;12897;50.812;4.430;2023-08-07T11:21:40;6.70;;;2.10;;
24799;SDS011;12897;50.812;4.430;2023-08-07T11:24:15;5.60;;;2.20;;
24799;SDS011;12897;50.812;4.430;2023-08-07T11:26:44;10.78;;;1.95;;
24799;SDS011;12897;50.812;4.430;2023-08-07T11:29:15;4.72;;;1.70;;
24799;SDS011;12897;50.812;4.430;2023-08-07T11:31:43;4.35;;;1.80;;
24799;SDS011;12897;50.812;4.430;2023-08-07T11:34:11;4.22;;;1.90;;
24799;SDS011;12897;50.812;4.430;2023-08-07T11:36:41;5.10;;;2.07;;
24799;SDS011;12897;50.812;4.430;2023-08-07T11:39:10;5.08;;;1.57;;
24799;SDS011;12897;50.812;4.430;2023-08-07T11:41:38;6.58;;;1.80;;
24799;SDS011;12897;50.812;4.430;2023-08-07T11:44:10;3.50;;;1.70;;
24799;SDS011;12897;50.812;4.430;2023-08-07T11:46:37;3.95;;;2.02;;
24799;SDS011;12897;50.812;4.430;2023-08-07T11:49:05;5.08;;;1.98;;
24799;SDS011;12897;50.812;4.430;2023-08-07T11:51:36;3.20;;;2.05;;
24799;SDS011;12897;50.812;4.430;2023-08-07T11:54:04;5.28;;;2.20;;
24799;SDS011;12897;50.812;4.430;2023-08-07T11:56:32;5.97;;;2.05;;
24799;SDS011;12897;50.812;4.430;2023-08-07T11:59:02;4.00;;;2.08;;
24799;SDS011;12897;50.812;4.430;2023-08-07T12:01:29;4.60;;;1.77;;
24799;SDS011;12897;50.812;4.430;2023-08-07T12:04:09;5.92;;;2.30;;
24799;SDS011;12897;50.812;4.430;2023-08-07T12:06:37;5.70;;;1.50;;
24799;SDS011;12897;50.812;4.430;2023-08-07T12:09:05;5.55;;;2.00;;
24799;SDS011;12897;50.812;4.430;2023-08-07T12:11:39;5.58;;;2.10;;
24799;SDS011;12897;50.812;4.430;2023-08-07T12:14:07;7.70;;;2.35;;
24799;SDS011;12897;50.812;4.430;2023-08-07T12:16:37;4.10;;;1.22;;
24799;SDS011;12897;50.812;4.430;2023-08-07T12:19:05;5.47;;;1.82;;
24799;SDS011;12897;50.812;4.430;2023-08-07T12:21:35;4.45;;;1.80;;
24799;SDS011;12897;50.812;4.430;2023-08-07T12:24:07;2.40;;;1.70;;
24799;SDS011;12897;50.812;4.430;2023-08-07T12:26:34;3.98;;;1.82;;
24799;SDS011;12897;50.812;4.430;2023-08-07T12:29:02;3.30;;;1.42;;
24799;SDS011;12897;50.812;4.430;2023-08-07T12:31:29;2.25;;;1.60;;
24799;SDS011;12897;50.812;4.430;2023-08-07T12:33:57;4.90;;;1.90;;
24799;SDS011;12897;50.812;4.430;2023-08-07T12:36:26;2.20;;;1.10;;
24799;SDS011;12897;50.812;4.430;2023-08-07T12:38:53;6.53;;;1.52;;
24799;SDS011;12897;50.812;4.430;2023-08-07T12:41:21;5.78;;;1.57;;
24799;SDS011;12897;50.812;4.430;2023-08-07T12:43:48;2.72;;;1.60;;
24799;SDS011;12897;50.812;4.430;2023-08-07T12:46:16;3.42;;;1.30;;
24799;SDS011;12897;50.812;4.430;2023-08-07T12:48:45;4.28;;;1.90;;
24799;SDS011;12897;50.812;4.430;2023-08-07T12:51:14;3.45;;;1.62;;
24799;SDS011;12897;50.812;4.430;2023-08-07T12:53:42;3.02;;;1.30;;
24799;SDS011;12897;50.812;4.430;2023-08-07T12:56:10;2.77;;;1.30;;
24799;SDS011;12897;50.812;4.430;2023-08-07T12:58:38;4.67;;;1.85;;
24799;SDS011;12897;50.812;4.430;2023-08-07T13:01:07;3.55;;;1.80;;
24799;SDS011;12897;50.812;4.430;2023-08-07T13:03:35;3.17;;;1.87;;
24799;SDS011;12897;50.812;4.430;2023-08-07T13:06:04;5.35;;;1.55;;
24799;SDS011;12897;50.812;4.430;2023-08-07T13:08:33;5.10;;;1.30;;
24799;SDS011;12897;50.812;4.430;2023-08-07T13:11:01;4.05;;;1.57;;
24799;SDS011;12897;50.812;4.430;2023-08-07T13:13:29;4.15;;;1.62;;
24799;SDS011;12897;50.812;4.430;2023-08-07T13:15:57;10.38;;;2.22;;
24799;SDS011;12897;50.812;4.430;2023-08-07T13:18:25;3.30;;;1.40;;
24799;SDS011;12897;50.812;4.430;2023-08-07T13:20:54;4.95;;;1.65;;
24799;SDS011;12897;50.812;4.430;2023-08-07T13:23:26;3.37;;;1.40;;
24799;SDS011;12897;50.812;4.430;2023-08-07T13:25:54;3.95;;;1.62;;
24799;SDS011;12897;50.812;4.430;2023-08-07T13:28:23;4.05;;;1.50;;
24799;SDS011;12897;50.812;4.430;2023-08-07T13:30:51;4.37;;;1.50;;
24799;SDS011;12897;50.812;4.430;2023-08-07T13:33:20;1.92;;;1.27;;
24799;SDS011;12897;50.812;4.430;2023-08-07T13:35:48;5.12;;;1.17;;
24799;SDS011;12897;50.812;4.430;2023-08-07T13:38:16;2.75;;;1.30;;
24799;SDS011;12897;50.812;4.430;2023-08-07T13:40:44;3.70;;;1.70;;
24799;SDS011;12897;50.812;4.430;2023-08-07T13:43:12;4.20;;;1.57;;
24799;SDS011;12897;50.812;4.430;2023-08-07T13:45:39;6.70;;;1.37;;
24799;SDS011;12897;50.812;4.430;2023-08-07T13:48:08;4.70;;;1.37;;
24799;SDS011;12897;50.812;4.430;2023-08-07T13:50:36;7.97;;;1.17;;
24799;SDS011;12897;50.812;4.430;2023-08-07T13:53:05;2.90;;;1.05;;
24799;SDS011;12897;50.812;4.430;2023-08-07T13:55:34;1.77;;;1.22;;
24799;SDS011;12897;50.812;4.430;2023-08-07T13:58:02;4.07;;;1.10;;
24799;SDS011;12897;50.812;4.430;2023-08-07T14:00:29;2.80;;;1.25;;
24799;SDS011;12897;50.812;4.430;2023-08-07T14:02:59;4.47;;;1.30;;
24799;SDS011;12897;50.812;4.430;2023-08-07T14:05:26;3.47;;;1.27;;
24799;SDS011;12897;50.812;4.430;2023-08-07T14:07:54;4.65;;;1.35;;
24799;SDS011;12897;50.812;4.430;2023-08-07T14:10:23;5.28;;;1.30;;
24799;SDS011;12897;50.812;4.430;2023-08-07T14:12:51;4.08;;;1.12;;
24799;SDS011;12897;50.812;4.430;2023-08-07T14:15:18;4.62;;;1.32;;
24799;SDS011;12897;50.812;4.430;2023-08-07T14:17:46;2.30;;;1.10;;
24799;SDS011;12897;50.812;4.430;2023-08-07T14:20:14;2.83;;;1.20;;
24799;SDS011;12897;50.812;4.430;2023-08-07T14:22:42;3.40;;;1.17;;
24799;SDS011;12897;50.812;4.430;2023-08-07T14:25:11;2.95;;;1.47;;
24799;SDS011;12897;50.812;4.430;2023-08-07T14:27:39;2.55;;;1.00;;
24799;SDS011;12897;50.812;4.430;2023-08-07T14:30:08;2.92;;;1.15;;
24799;SDS011;12897;50.812;4.430;2023-08-07T14:32:36;1.82;;;1.20;;
24799;SDS011;12897;50.812;4.430;2023-08-07T14:35:03;3.30;;;1.10;;
24799;SDS011;12897;50.812;4.430;2023-08-07T14:37:31;4.60;;;1.20;;
24799;SDS011;12897;50.812;4.430;2023-08-07T14:39:59;3.10;;;1.00;;
24799;SDS011;12897;50.812;4.430;2023-08-07T14:42:28;2.55;;;1.12;;
24799;SDS011;12897;50.812;4.430;2023-08-07T14:44:56;1.87;;;1.07;;
24799;SDS011;12897;50.812;4.430;2023-08-07T14:47:24;3.70;;;1.52;;
24799;SDS011;12897;50.812;4.430;2023-08-07T14:49:51;4.28;;;1.00;;
24799;SDS011;12897;50.812;4.430;2023-08-07T14:52:20;2.55;;;1.12;;
24799;SDS011;12897;50.812;4.430;2023-08-07T14:54:48;3.15;;;1.10;;
24799;SDS011;12897;50.812;4.430;2023-08-07T14:57:15;2.90;;;1.30;;
24799;SDS011;12897;50.812;4.430;2023-08-07T14:59:43;1.98;;;1.10;;
24799;SDS011;12897;50.812;4.430;2023-08-07T15:02:10;1.92;;;0.93;;
24799;SDS011;12897;50.812;4.430;2023-08-07T15:04:39;3.67;;;1.20;;
24799;SDS011;12897;50.812;4.430;2023-08-07T15:07:09;2.40;;;1.05;;
24799;SDS011;12897;50.812;4.430;2023-08-07T15:09:44;1.98;;;0.93;;
24799;SDS011;12897;50.812;4.430;2023-08-07T15:12:13;4.65;;;1.30;;
24799;SDS011;12897;50.812;4.430;2023-08-07T15:14:41;3.80;;;1.50;;
24799;SDS011;12897;50.812;4.430;2023-08-07T15:17:10;2.72;;;1.05;;
24799;SDS011;12897;50.812;4.430;2023-08-07T15:19:38;2.52;;;1.15;;
24799;SDS011;12897;50.812;4.430;2023-08-07T15:22:05;2.40;;;0.95;;
24799;SDS011;12897;50.812;4.430;2023-08-07T15:24:33;1.27;;;0.98;;
24799;SDS011;12897;50.812;4.430;2023-08-07T15:27:01;5.28;;;1.25;;
24799;SDS011;12897;50.812;4.430;2023-08-07T15:29:29;6.80;;;2.52;;
24799;SDS011;12897;50.812;4.430;2023-08-07T15:31:59;6.92;;;2.35;;
24799;SDS011;12897;50.812;4.430;2023-08-07T15:34:30;3.70;;;1.45;;
24799;SDS011;12897;50.812;4.430;2023-08-07T15:36:57;1.50;;;1.00;;
24799;SDS011;12897;50.812;4.430;2023-08-07T15:39:25;2.40;;;1.42;;